Terminal Aerodrome Forecast
Issued by NWS Paducah, KY

Home | Current Version | Previous Version | Text Only | Print | Product List | Glossary On
Versions: 1 2 3 4 5 6 7 8 9 10 11 12 13 14 15 16 17 18 19 20 21 22 23 24 25 26 27 28
000
FTUS43 KPAH 191127
TAFEVV
TAF
KEVV 191127Z 1912/2012 20010G20KT P6SM OVC015
     FM191600 20015G25KT P6SM VCSH BKN020
     FM192300 18010G20KT P6SM BKN050 WS020/20040KT=

USA.gov is the U.S. government's official web portal to all federal, state and local government web resources and services.